createdAt,value
2022-08-08T00:00:54.451Z,2.78
2022-08-08T00:03:19.854Z,2.38
2022-08-08T00:06:28.606Z,2.45
2022-08-08T00:09:16.864Z,2.58
2022-08-08T00:12:09.726Z,3.17
2022-08-08T00:14:59.217Z,2.85
2022-08-08T00:18:03.320Z,2.67
2022-08-08T00:20:51.304Z,2.83
2022-08-08T00:23:47.615Z,3.20
2022-08-08T00:26:46.504Z,2.85
2022-08-08T00:29:45.616Z,2.92
2022-08-08T00:32:36.163Z,2.80
2022-08-08T00:35:34.687Z,2.90
2022-08-08T00:38:44.364Z,2.78
2022-08-08T00:42:07.758Z,3.05
2022-08-08T00:45:27.057Z,2.92
2022-08-08T00:48:58.972Z,2.80
2022-08-08T00:52:19.878Z,2.72
2022-08-08T00:55:16.726Z,3.38
2022-08-08T00:58:54.791Z,3.00
2022-08-08T01:01:42.502Z,2.55
2022-08-08T01:04:53.083Z,3.15
2022-08-08T01:07:54.901Z,2.80
2022-08-08T01:10:52.305Z,3.00
2022-08-08T01:14:53.297Z,3.28
2022-08-08T01:17:19.282Z,3.20
2022-08-08T01:20:26.267Z,2.90
2022-08-08T01:24:06.404Z,3.00
2022-08-08T01:26:39.443Z,2.95
2022-08-08T01:29:58.617Z,3.33
2022-08-08T01:33:16.397Z,2.92
2022-08-08T01:36:28.426Z,3.10
2022-08-08T01:39:23.291Z,2.63
2022-08-08T01:42:21.199Z,3.03
2022-08-08T01:45:56.304Z,3.10
2022-08-08T01:49:11.046Z,2.80
2022-08-08T01:52:33.611Z,3.67
2022-08-08T01:58:38.247Z,2.92
2022-08-08T02:02:00.061Z,3.03
2022-08-08T02:04:35.550Z,2.72
2022-08-08T02:07:22.437Z,3.35
2022-08-08T02:10:29.516Z,3.33
2022-08-08T02:13:54.034Z,3.78
2022-08-08T02:17:10.559Z,3.72
2022-08-08T02:20:15.955Z,3.40
2022-08-08T02:23:31.595Z,3.40
2022-08-08T02:26:16.076Z,3.10
2022-08-08T02:29:41.624Z,3.42
2022-08-08T02:33:12.592Z,3.60
2022-08-08T02:36:28.576Z,3.45
2022-08-08T02:39:40.382Z,3.45
2022-08-08T02:44:32.906Z,2.85
2022-08-08T02:46:34.284Z,3.05
2022-08-08T02:49:51.056Z,2.95
2022-08-08T02:52:59.149Z,2.90
2022-08-08T02:56:34.440Z,3.08
2022-08-08T02:59:57.973Z,3.65
2022-08-08T03:05:01.043Z,3.45
2022-08-08T03:06:45.577Z,2.58
2022-08-08T03:10:31.620Z,3.00
2022-08-08T03:15:58.349Z,3.80
2022-08-08T03:17:51.996Z,3.55
2022-08-08T03:20:47.082Z,3.60
2022-08-08T03:23:22.299Z,3.60
2022-08-08T03:25:51.961Z,3.35
2022-08-08T03:28:33.166Z,4.20
2022-08-08T03:31:07.914Z,3.92
2022-08-08T03:33:58.928Z,3.47
2022-08-08T03:36:30.393Z,3.70
2022-08-08T03:39:14.438Z,3.88
2022-08-08T03:42:27.197Z,3.90
2022-08-08T03:44:35.085Z,3.35
2022-08-08T03:47:14.177Z,3.65
2022-08-08T03:49:57.160Z,3.50
2022-08-08T03:52:26.829Z,3.80
2022-08-08T03:55:10.538Z,3.70
2022-08-08T03:58:30.484Z,3.40
2022-08-08T04:01:01.753Z,3.45
2022-08-08T04:03:58.517Z,3.08
2022-08-08T04:08:50.086Z,3.08
2022-08-08T04:11:23.329Z,3.53
2022-08-08T04:14:03.474Z,3.65
2022-08-08T04:16:40.419Z,3.90
2022-08-08T04:19:24.118Z,3.65
2022-08-08T04:21:54.195Z,3.40
2022-08-08T04:24:28.576Z,4.15
2022-08-08T04:26:58.790Z,3.28
2022-08-08T04:29:36.980Z,3.47
2022-08-08T04:32:06.921Z,4.20
2022-08-08T04:34:42.836Z,3.60
2022-08-08T04:37:16.486Z,3.50
2022-08-08T04:40:04.261Z,3.50
2022-08-08T04:42:33.678Z,3.80
2022-08-08T04:45:01.130Z,3.80
2022-08-08T04:47:28.044Z,4.00
2022-08-08T04:50:00.918Z,3.40
2022-08-08T04:52:33.785Z,4.10
2022-08-08T04:55:04.202Z,3.50
2022-08-08T04:57:34.442Z,3.95
2022-08-08T05:00:02.267Z,3.53
2022-08-08T05:02:30.892Z,3.95
2022-08-08T05:04:59.811Z,3.22
2022-08-08T05:07:38.017Z,3.40
2022-08-08T05:10:12.307Z,3.97
2022-08-08T05:12:42.890Z,3.72
2022-08-08T05:16:48.401Z,3.97
2022-08-08T05:18:14.118Z,4.35
2022-08-08T05:20:48.664Z,4.03
2022-08-08T05:23:17.473Z,4.50
2022-08-08T05:25:44.342Z,4.35
2022-08-08T05:28:15.003Z,4.53
2022-08-08T05:30:47.433Z,4.20
2022-08-08T05:33:16.941Z,4.43
2022-08-08T05:35:46.447Z,4.40
2022-08-08T05:38:31.424Z,3.88
2022-08-08T05:41:03.698Z,4.25
2022-08-08T05:43:39.079Z,3.58
2022-08-08T05:46:09.746Z,4.40
2022-08-08T05:48:38.648Z,3.92
2022-08-08T05:51:15.003Z,3.97
2022-08-08T05:54:25.356Z,4.10
2022-08-08T05:56:42.323Z,3.78
2022-08-08T05:59:57.670Z,3.70
2022-08-08T06:02:43.220Z,4.13
2022-08-08T06:05:16.362Z,4.40
2022-08-08T06:08:10.223Z,4.85
2022-08-08T06:10:50.582Z,3.83
2022-08-08T06:13:22.800Z,3.80
2022-08-08T06:15:53.637Z,4.28
2022-08-08T06:18:25.651Z,4.82
2022-08-08T06:20:57.717Z,4.05
2022-08-08T06:23:49.090Z,3.78
2022-08-08T06:26:38.490Z,3.65
2022-08-08T06:29:25.952Z,3.58
2022-08-08T06:32:10.612Z,3.83
2022-08-08T06:34:39.980Z,3.55
2022-08-08T06:37:37.065Z,3.28
2022-08-08T06:40:12.794Z,3.42
2022-08-08T06:43:09.448Z,3.03
2022-08-08T06:45:40.252Z,3.47
2022-08-08T06:48:08.626Z,3.50
2022-08-08T06:50:38.489Z,4.70
2022-08-08T06:53:10.087Z,3.72
2022-08-08T06:55:46.898Z,3.38
2022-08-08T06:58:14.370Z,3.03
2022-08-08T07:00:46.423Z,4.00
2022-08-08T07:03:52.660Z,3.78
2022-08-08T07:06:26.812Z,3.83
2022-08-08T07:09:01.141Z,3.20
2022-08-08T07:11:46.213Z,3.25
2022-08-08T07:14:27.364Z,3.47
2022-08-08T07:17:09.104Z,3.58
2022-08-08T07:20:05.786Z,2.97
2022-08-08T07:23:11.895Z,2.65
2022-08-08T07:25:54.529Z,3.08
2022-08-08T07:28:31.643Z,3.08
2022-08-08T07:30:59.705Z,3.15
2022-08-08T07:33:27.338Z,3.17
2022-08-08T07:36:08.256Z,2.53
2022-08-08T07:38:37.866Z,2.97
2022-08-08T07:41:07.246Z,3.25
2022-08-08T07:43:51.141Z,2.55
2022-08-08T07:46:29.015Z,2.70
2022-08-08T07:48:57.934Z,2.60
2022-08-08T07:51:45.082Z,2.40
2022-08-08T07:54:37.871Z,3.08
2022-08-08T07:57:22.542Z,2.40
2022-08-08T08:02:41.569Z,2.70
2022-08-08T08:05:33.145Z,2.45
2022-08-08T08:08:18.762Z,2.58
2022-08-08T08:10:57.063Z,2.53
2022-08-08T08:13:42.737Z,2.10
2022-08-08T08:16:33.682Z,2.80
2022-08-08T08:19:12.719Z,2.47
2022-08-08T08:21:57.090Z,2.65
2022-08-08T08:24:30.369Z,2.43
2022-08-08T08:27:02.991Z,2.58
2022-08-08T08:29:30.903Z,2.30
2022-08-08T08:31:59.097Z,2.20
2022-08-08T08:34:32.283Z,3.03
2022-08-08T08:37:07.634Z,2.40
2022-08-08T08:40:00.592Z,2.22
2022-08-08T08:42:32.100Z,2.63
2022-08-08T08:45:20.739Z,2.10
2022-08-08T08:47:58.575Z,2.20
2022-08-08T08:50:33.607Z,2.67
2022-08-08T08:53:28.349Z,2.10
2022-08-08T08:56:02.128Z,2.40
2022-08-08T08:58:46.506Z,2.33
2022-08-08T09:01:19.506Z,2.22
2022-08-08T09:03:50.896Z,2.05
2022-08-08T09:06:38.072Z,2.45
2022-08-08T09:09:26.378Z,2.00
2022-08-08T09:12:08.291Z,2.10
2022-08-08T09:14:35.718Z,2.03
2022-08-08T09:17:17.848Z,2.00
2022-08-08T09:22:01.644Z,2.03
2022-08-08T09:22:36.699Z,1.92
2022-08-08T09:25:07.523Z,1.77
2022-08-08T09:27:56.844Z,1.40
2022-08-08T09:30:27.866Z,1.52
2022-08-08T09:33:12.640Z,1.33
2022-08-08T09:35:51.221Z,1.30
2022-08-08T09:38:54.136Z,1.10
2022-08-08T09:41:55.087Z,1.50
2022-08-08T09:44:36.402Z,1.00
2022-08-08T09:47:26.671Z,1.65
2022-08-08T09:50:01.585Z,1.45
2022-08-08T09:52:57.516Z,1.90
2022-08-08T09:55:51.783Z,1.50
2022-08-08T09:58:25.861Z,2.33
2022-08-08T10:00:59.121Z,1.65
2022-08-08T10:03:31.382Z,1.60
2022-08-08T10:05:59.364Z,1.77
2022-08-08T10:08:26.383Z,1.42
2022-08-08T10:10:59.585Z,1.40
2022-08-08T10:13:35.871Z,1.38
2022-08-08T10:16:05.771Z,1.55
2022-08-08T10:18:35.608Z,1.45
2022-08-08T10:21:25.205Z,1.65
2022-08-08T10:24:12.264Z,1.65
2022-08-08T10:27:03.468Z,1.80
2022-08-08T10:29:59.046Z,1.30
2022-08-08T10:36:19.974Z,1.42
2022-08-08T10:38:15.217Z,1.20
2022-08-08T10:40:45.772Z,1.08
2022-08-08T10:43:14.368Z,1.30
2022-08-08T10:45:56.138Z,1.60
2022-08-08T10:48:37.364Z,1.13
2022-08-08T10:51:13.863Z,1.45
2022-08-08T10:53:57.159Z,1.67
2022-08-08T10:56:34.456Z,1.30
2022-08-08T10:59:07.923Z,1.45
2022-08-08T11:01:39.296Z,1.40
2022-08-08T11:04:10.370Z,1.58
2022-08-08T11:06:41.443Z,1.48
2022-08-08T11:09:19.198Z,1.20
2022-08-08T11:14:35.381Z,1.20
2022-08-08T11:17:04.402Z,1.50
2022-08-08T11:19:34.786Z,1.77
2022-08-08T11:22:04.227Z,1.40
2022-08-08T11:24:35.857Z,1.40
2022-08-08T11:27:10.762Z,1.40
2022-08-08T11:30:04.274Z,1.30
2022-08-08T11:32:47.514Z,1.63
2022-08-08T11:35:33.588Z,1.50
2022-08-08T11:38:39.246Z,1.30
2022-08-08T11:40:52.615Z,1.38
2022-08-08T11:43:24.361Z,1.60
2022-08-08T11:48:41.433Z,1.73
2022-08-08T11:51:30.794Z,1.48
2022-08-08T11:54:02.194Z,1.65
2022-08-08T11:56:42.015Z,1.50
2022-08-08T11:59:11.653Z,1.50
2022-08-08T12:01:39.089Z,1.48
2022-08-08T12:04:08.205Z,1.10
2022-08-08T12:06:35.152Z,1.50
2022-08-08T12:09:09.757Z,1.60
2022-08-08T12:11:45.867Z,1.35
2022-08-08T12:14:23.629Z,1.60
2022-08-08T12:16:53.176Z,1.45
2022-08-08T12:19:31.478Z,1.42
2022-08-08T12:22:13.891Z,1.45
2022-08-08T12:24:54.163Z,1.67
2022-08-08T12:27:27.024Z,1.50
2022-08-08T12:30:02.714Z,1.63
2022-08-08T12:32:46.489Z,1.77
2022-08-08T12:35:22.882Z,1.30
2022-08-08T12:38:05.966Z,1.42
2022-08-08T12:40:59.161Z,1.17
2022-08-08T12:43:46.434Z,1.58
2022-08-08T12:46:25.373Z,1.38
2022-08-08T12:51:58.504Z,1.42
2022-08-08T12:54:33.250Z,1.30
2022-08-08T12:57:24.510Z,1.45
2022-08-08T13:00:03.814Z,1.40
2022-08-08T13:02:35.805Z,1.80
2022-08-08T13:05:25.487Z,1.50
2022-08-08T13:08:03.442Z,1.08
2022-08-08T13:10:36.647Z,1.48
2022-08-08T13:13:34.686Z,1.20
2022-08-08T13:16:25.964Z,1.60
2022-08-08T13:19:05.500Z,1.50
2022-08-08T13:21:53.624Z,1.40
2022-08-08T13:24:42.423Z,1.42
2022-08-08T13:27:18.075Z,1.58
2022-08-08T13:30:06.388Z,1.38
2022-08-08T13:32:39.660Z,1.70
2022-08-08T13:35:11.665Z,1.70
2022-08-08T13:38:06.119Z,1.67
2022-08-08T13:40:34.981Z,1.30
2022-08-08T13:43:04.017Z,1.30
2022-08-08T13:45:31.328Z,1.80
2022-08-08T13:47:59.557Z,1.70
2022-08-08T13:50:39.278Z,1.67
2022-08-08T13:53:25.235Z,1.80
2022-08-08T13:56:12.343Z,1.80
2022-08-08T13:58:57.904Z,1.80
2022-08-08T14:01:41.935Z,1.58
2022-08-08T14:04:24.518Z,2.00
2022-08-08T14:07:01.634Z,1.70
2022-08-08T14:10:04.637Z,1.80
2022-08-08T14:12:30.029Z,1.88
2022-08-08T14:14:57.291Z,2.00
2022-08-08T14:17:57.817Z,1.90
2022-08-08T14:20:15.748Z,1.88
2022-08-08T14:23:21.060Z,1.80
2022-08-08T14:26:10.435Z,1.65
2022-08-08T14:28:39.764Z,1.70
2022-08-08T14:31:11.349Z,1.80
2022-08-08T14:33:56.646Z,1.53
2022-08-08T14:36:38.755Z,1.73
2022-08-08T14:39:11.587Z,1.65
2022-08-08T14:41:45.174Z,1.85
2022-08-08T14:44:33.696Z,2.00
2022-08-08T14:47:02.594Z,1.55
2022-08-08T14:50:06.489Z,1.92
2022-08-08T14:53:05.035Z,1.92
2022-08-08T14:55:41.269Z,1.63
2022-08-08T14:58:12.061Z,2.20
2022-08-08T15:03:14.895Z,1.60
2022-08-08T15:05:53.783Z,1.85
2022-08-08T15:08:34.726Z,1.70
2022-08-08T15:11:09.195Z,1.63
2022-08-08T15:13:41.189Z,2.05
2022-08-08T15:16:24.314Z,1.67
2022-08-08T15:18:51.768Z,1.73
2022-08-08T15:21:21.104Z,2.03
2022-08-08T15:23:52.643Z,1.60
2022-08-08T15:26:21.218Z,1.75
2022-08-08T15:28:54.212Z,1.90
2022-08-08T15:31:55.955Z,2.05
2022-08-08T15:34:28.990Z,1.85
2022-08-08T15:36:58.463Z,1.95
2022-08-08T15:39:27.471Z,1.80
2022-08-08T15:41:55.350Z,1.80
2022-08-08T15:44:22.249Z,1.52
2022-08-08T15:46:50.738Z,1.55
2022-08-08T15:49:20.567Z,2.03
2022-08-08T15:51:50.145Z,1.65
2022-08-08T15:54:18.866Z,1.73
2022-08-08T15:57:07.549Z,2.03
2022-08-08T16:00:05.805Z,2.00
2022-08-08T16:02:21.881Z,1.48
2022-08-08T16:04:58.980Z,1.80
2022-08-08T16:07:52.117Z,1.50
2022-08-08T16:13:04.684Z,1.52
2022-08-08T16:13:28.934Z,1.60
2022-08-08T16:15:58.971Z,1.73
2022-08-08T16:18:35.819Z,1.45
2022-08-08T16:21:03.614Z,1.50
2022-08-08T16:23:32.979Z,1.90
2022-08-08T16:26:12.758Z,1.98
2022-08-08T16:28:44.320Z,1.90
2022-08-08T16:31:12.889Z,1.88
2022-08-08T16:33:40.557Z,1.60
2022-08-08T16:36:15.816Z,1.77
2022-08-08T16:38:53.985Z,1.70
2022-08-08T16:41:23.738Z,1.50
2022-08-08T16:43:52.280Z,1.83
2022-08-08T16:46:37.543Z,1.50
2022-08-08T16:49:08.853Z,1.60
2022-08-08T16:55:00.526Z,1.60
2022-08-08T16:55:18.392Z,1.52
2022-08-08T16:57:22.637Z,2.00
2022-08-08T16:59:52.177Z,1.92
2022-08-08T17:02:37.935Z,1.63
2022-08-08T17:05:08.408Z,2.03
2022-08-08T17:07:37.535Z,1.67
2022-08-08T17:10:08.634Z,1.83
2022-08-08T17:12:36.485Z,1.90
2022-08-08T17:15:17.836Z,1.95
2022-08-08T17:18:02.658Z,1.98
2022-08-08T17:20:39.730Z,1.77
2022-08-08T17:23:17.825Z,1.63
2022-08-08T17:25:57.187Z,1.73
2022-08-08T17:28:35.140Z,2.05
2022-08-08T17:31:44.860Z,1.63
2022-08-08T17:34:35.793Z,1.38
2022-08-08T17:36:55.146Z,1.90
2022-08-08T17:40:04.063Z,1.60
2022-08-08T17:42:16.526Z,1.70
2022-08-08T17:44:45.799Z,1.83
2022-08-08T17:47:24.331Z,1.80
2022-08-08T17:50:02.748Z,1.60
2022-08-08T17:52:34.171Z,1.83
2022-08-08T17:55:05.426Z,1.48
2022-08-08T17:57:36.445Z,1.48
2022-08-08T18:00:13.248Z,2.30
2022-08-08T18:02:58.169Z,1.70
2022-08-08T18:05:48.999Z,2.00
2022-08-08T18:08:37.828Z,1.33
2022-08-08T18:11:17.003Z,2.00
2022-08-08T18:13:47.917Z,2.00
2022-08-08T18:16:16.981Z,1.30
2022-08-08T18:18:54.072Z,1.60
2022-08-08T18:21:58.833Z,1.67
2022-08-08T18:24:18.900Z,1.67
2022-08-08T18:26:54.788Z,1.70
2022-08-08T18:29:36.424Z,1.70
2022-08-08T18:32:08.392Z,1.77
2022-08-08T18:34:37.887Z,1.48
2022-08-08T18:37:06.701Z,1.83
2022-08-08T18:39:41.172Z,1.80
2022-08-08T18:42:14.241Z,2.08
2022-08-08T18:44:53.031Z,1.50
2022-08-08T18:47:24.478Z,2.00
2022-08-08T18:49:58.430Z,1.73
2022-08-08T18:52:28.374Z,1.60
2022-08-08T18:54:59.568Z,1.42
2022-08-08T18:57:42.187Z,1.65
2022-08-08T19:00:16.397Z,2.08
2022-08-08T19:02:54.689Z,2.13
2022-08-08T19:05:45.453Z,2.38
2022-08-08T19:08:28.474Z,1.90
2022-08-08T19:10:59.131Z,2.15
2022-08-08T19:13:47.268Z,1.73
2022-08-08T19:16:19.404Z,1.77
2022-08-08T19:19:00.265Z,1.80
2022-08-08T19:21:33.449Z,1.85
2022-08-08T19:24:05.803Z,1.58
2022-08-08T19:26:37.796Z,1.52
2022-08-08T19:29:06.053Z,1.52
2022-08-08T19:31:35.245Z,1.63
2022-08-08T19:34:29.902Z,1.42
2022-08-08T19:36:58.420Z,1.50
2022-08-08T19:39:30.820Z,1.60
2022-08-08T19:42:06.809Z,1.25
2022-08-08T19:44:45.508Z,1.23
2022-08-08T19:47:13.957Z,1.48
2022-08-08T19:49:43.635Z,1.95
2022-08-08T19:52:35.011Z,2.72
2022-08-08T19:55:11.253Z,1.50
2022-08-08T19:57:41.044Z,1.23
2022-08-08T20:00:30.818Z,1.00
2022-08-08T20:03:00.495Z,1.00
2022-08-08T20:06:14.118Z,0.82
2022-08-08T20:08:29.289Z,1.10
2022-08-08T20:11:00.236Z,1.25
2022-08-08T20:14:32.177Z,0.90
2022-08-08T20:16:15.546Z,0.80
2022-08-08T20:18:52.788Z,0.93
2022-08-08T20:21:24.963Z,0.60
2022-08-08T20:23:58.087Z,0.82
2022-08-08T20:26:27.598Z,0.95
2022-08-08T20:28:57.376Z,0.80
2022-08-08T20:31:24.238Z,0.93
2022-08-08T20:34:30.246Z,0.80
2022-08-08T20:36:58.711Z,0.60
2022-08-08T20:39:33.635Z,1.00
2022-08-08T20:42:09.120Z,1.45
2022-08-08T20:44:37.563Z,1.17
2022-08-08T20:47:05.328Z,0.82
2022-08-08T20:49:46.641Z,1.58
2022-08-08T20:52:15.498Z,1.20
2022-08-08T20:54:44.208Z,1.08
2022-08-08T20:57:18.677Z,1.45
2022-08-08T20:59:46.736Z,2.15
2022-08-08T21:02:16.419Z,1.20
2022-08-08T21:04:52.652Z,2.22
2022-08-08T21:07:47.082Z,1.63
2022-08-08T21:10:12.780Z,1.20
2022-08-08T21:12:44.648Z,0.93
2022-08-08T21:15:16.555Z,1.02
2022-08-08T21:18:00.150Z,0.90
2022-08-08T21:20:34.155Z,0.90
2022-08-08T21:23:02.984Z,1.00
2022-08-08T21:25:32.829Z,1.48
2022-08-08T21:28:14.729Z,1.00
2022-08-08T21:30:42.513Z,1.10
2022-08-08T21:33:12.435Z,0.95
2022-08-08T21:36:18.097Z,0.70
2022-08-08T21:38:27.195Z,0.85
2022-08-08T21:40:55.522Z,1.00
2022-08-08T21:43:33.738Z,1.42
2022-08-08T21:48:06.530Z,1.10
2022-08-08T21:48:59.155Z,0.98
2022-08-08T21:54:17.592Z,0.95
2022-08-08T21:54:51.967Z,1.13
2022-08-08T21:57:07.070Z,0.68
2022-08-08T22:00:02.096Z,1.50
2022-08-08T22:02:23.419Z,0.90
2022-08-08T22:04:58.626Z,1.00
2022-08-08T22:07:34.567Z,1.17
2022-08-08T22:10:18.215Z,1.20
2022-08-08T22:13:17.005Z,0.65
2022-08-08T22:15:43.938Z,1.38
2022-08-08T22:18:28.215Z,1.10
2022-08-08T22:20:59.394Z,0.90
2022-08-08T22:23:32.636Z,1.15
2022-08-08T22:26:27.613Z,1.00
2022-08-08T22:29:14.893Z,1.13
2022-08-08T22:31:36.039Z,1.00
2022-08-08T22:34:13.808Z,0.90
2022-08-08T22:36:42.711Z,0.90
2022-08-08T22:39:18.856Z,0.90
2022-08-08T22:41:46.062Z,0.73
2022-08-08T22:44:13.019Z,1.05
2022-08-08T22:46:40.115Z,0.80
2022-08-08T22:49:09.241Z,0.77
2022-08-08T22:51:42.462Z,1.23
2022-08-08T22:54:33.194Z,1.27
2022-08-08T22:57:01.302Z,1.02
2022-08-08T22:59:35.755Z,1.40
2022-08-08T23:02:12.762Z,0.80
2022-08-08T23:04:55.783Z,0.82
2022-08-08T23:07:51.643Z,0.68
2022-08-08T23:10:12.314Z,0.63
2022-08-08T23:16:38.674Z,0.75
2022-08-08T23:18:02.049Z,0.70
2022-08-08T23:20:31.201Z,0.82
2022-08-08T23:22:58.687Z,0.90
2022-08-08T23:25:26.457Z,0.82
2022-08-08T23:27:54.321Z,1.13
2022-08-08T23:30:22.391Z,1.17
2022-08-08T23:32:49.882Z,1.17
2022-08-08T23:35:18.865Z,1.23
2022-08-08T23:38:02.244Z,0.93
2022-08-08T23:40:30.578Z,1.17
2022-08-08T23:42:57.603Z,1.10
2022-08-08T23:49:01.800Z,1.10
2022-08-08T23:49:04.912Z,1.27
2022-08-08T23:50:58.526Z,1.00
2022-08-08T23:54:04.819Z,1.20
2022-08-08T23:56:12.857Z,1.45
2022-08-08T23:58:39.691Z,0.90
